METAR AND TAF INFORMATION
METAR FOR EHKD
ADDS - METARS form results

(1550 UTC 13 July 2020)
Data provider http://aviationweather.gov/metar/data/
 
METAR text: EHKD 131525Z AUTO 23010KT 200V260 9999 OVC260 20/10 Q1021 BLU 23010KT CAVOK
Conditions at: EHKD (DE KOOY (NAVY) , NL) observed 1525 UTC 13 July 2020
Temperature: 20.0°C (68°F)
Dewpoint: 10.0°C (50°F) [RH = 53%]
Pressure (altimeter): 30.15 inches Hg (1021.0 mb)
Winds: from the SW (230 degrees) at 12 MPH (10 knots; 5.1 m/s)
Visibility: 6 or more miles (10+ km)
Ceiling: 26000 feet AGL
Clouds: overcast cloud deck at 26000 feet AGL
Weather: no significant weather observed at this time

METAR text: EHKD 131455Z AUTO 24010KT 200V270 9999 BKN310 OVC360 20/11 Q1021 BLU 23010KT CAVOK
Conditions at: EHKD (DE KOOY (NAVY) , NL) observed 1455 UTC 13 July 2020
Temperature: 20.0°C (68°F)
Dewpoint: 11.0°C (52°F) [RH = 56%]
Pressure (altimeter): 30.15 inches Hg (1021.0 mb)
Winds: from the WSW (240 degrees) at 12 MPH (10 knots; 5.1 m/s)
Visibility: 6 or more miles (10+ km)
Ceiling: 31000 feet AGL
Clouds: broken clouds at 31000 feet AGL
overcast cloud deck at 36000 feet AGL
Weather: no significant weather observed at this time

Forecast for: EHKD (DE KOOY (NAVY) , NL)
Text: TAF EHKD 131215Z 1313/1401 22010KT CAVOK
Forecast period: 1300 to 1700 UTC 13 July 2020
Forecast type: FROM: standard forecast or significant change
Winds: from the SW (220 degrees) at 12 MPH (10 knots; 5.1 m/s)
Visibility: 6 or more miles 10+ km)
Ceiling: unknown
Clouds: missing
Weather: NSW  (no significant weather)
Text: BECMG 1317/1320 21006KT
Forecast period: 1700 UTC 13 July 2020 to 0100 UTC 14 July 2020
Forecast type: BECOMING: Conditions expected to become as follows by 2000 UTC 13 July 2020
Winds: from the SSW (210 degrees) at 7 MPH (6 knots; 3.1 m/s)
Visibility: 6 or more miles 10+ km)
Ceiling: unknown
Clouds: missing
Weather: NSW  (no significant weather)

 AIRPORT MAP

 RUNWAY INFORMATION
Runway 04 Runway length 4183 ft Runway width 98 ft
Runway elevation 3 ft Runway displaced threshold 804 ft Runway heading 34
Runway 22 Runway length 4183 ft Runway width 98 ft
Runway elevation 2 ft Runway displaced threshold 804 ft Runway heading 214

 AIRPORT FREQUENCIES
Type APP Name APP Frequency 119.1 MHZ
Type FSS Name FINAL Frequency 123.3 MHZ
Type GND Name GND Frequency 121.725 MHZ
Type TWR Name TWR Frequency 120.125 MHZ

 AIRPORT NEAR NAVIGATION AIDS
Type VOR-DME Name Den Helder Frequency 115550 KHZ